Terminal Aerodrome Forecast
Issued by NWS Corpus Christi, TX

Home | Current Version | Previous Version | Text Only | Print | Product List | Glossary On
Versions: 1 2 3 4 5 6 7 8 9 10 11 12 13 14 15 16 17 18 19 20 21 22 23 24 25 26
000
FTUS44 KCRP 041700 RRA
TAFCRP
TAF
KCRP 041741Z 0418/0518 18015G20KT P6SM -DZ BKN012 OVC025
     FM042200 15015G20KT P6SM VCSH SCT025 BKN150
     FM050100 15012KT 4SM BR VCSH BKN008
     FM050500 01027G35KT 6SM SHRA BR BKN006 OVC011
     FM051500 01025G35KT P6SM BKN012 OVC028=

USA.gov is the U.S. government's official web portal to all federal, state and local government web resources and services.